Time;durP1;ratioP1;P1;durP2;ratioP2;P2;SDS_P1;SDS_P2;PMS_P1;PMS_P2;Temp;Humidity;BMP_temperature;BMP_pressure;BME280_temperature;BME280_humidity;BME280_pressure;Samples;Min_cycle;Max_cycle;Signal;HPM_P1;HPM_P2
2022/10/07 00:01:15;;;;;;;14.73;3.95;;;;;;;11.98;67.65;102677.09;6245910;23;20032;-61
2022/10/07 00:03:40;;;;;;;12.43;3.85;;;;;;;11.99;67.80;102670.94;6245571;23;20004;-61
2022/10/07 00:06:12;;;;;;;13.27;4.10;;;;;;;12.01;67.76;102677.22;6245847;23;20083;-61
2022/10/07 00:08:39;;;;;;;16.43;4.20;;;;;;;12.02;67.12;102669.31;6246239;23;20000;-61
2022/10/07 00:11:10;;;;;;;12.73;3.78;;;;;;;11.97;66.64;102665.59;6246178;23;20289;-61
2022/10/07 00:13:38;;;;;;;11.90;3.25;;;;;;;11.90;66.69;102663.56;6246229;23;20011;-61
2022/10/07 00:16:23;;;;;;;10.20;3.90;;;;;;;11.93;67.26;102665.44;6245487;23;20004;-61
2022/10/07 00:18:50;;;;;;;11.57;3.45;;;;;;;11.89;68.21;102666.19;6245927;23;20442;-61
2022/10/07 00:21:17;;;;;;;17.58;4.13;;;;;;;11.80;68.25;102656.13;6246173;23;20000;-62
2022/10/07 00:23:44;;;;;;;13.50;3.88;;;;;;;11.77;69.10;102662.22;6245884;23;20012;-62
2022/10/07 00:26:18;;;;;;;14.95;4.03;;;;;;;11.70;69.09;102659.31;6246798;23;20371;-62
2022/10/07 00:28:45;;;;;;;13.60;3.95;;;;;;;11.67;68.96;102654.81;6248153;23;20368;-62
2022/10/07 00:31:16;;;;;;;10.10;3.90;;;;;;;11.67;68.79;102657.47;6248065;23;20004;-61
2022/10/07 00:33:42;;;;;;;11.43;4.22;;;;;;;11.68;69.12;102651.31;6247773;23;20028;-62
2022/10/07 00:36:12;;;;;;;13.70;3.97;;;;;;;11.71;69.06;102653.16;6247737;23;20453;-61
2022/10/07 00:38:38;;;;;;;15.45;3.95;;;;;;;11.70;69.61;102646.09;6247573;23;20373;-61
2022/10/07 00:41:07;;;;;;;10.02;3.58;;;;;;;11.71;69.64;102639.94;6247955;23;20008;-61
2022/10/07 00:43:32;;;;;;;12.55;4.47;;;;;;;11.57;69.81;102641.22;6247563;23;20008;-61
2022/10/07 00:46:20;;;;;;;16.42;4.28;;;;;;;11.54;70.22;102636.69;6247472;23;20004;-61
2022/10/07 00:48:45;;;;;;;12.32;4.20;;;;;;;11.61;70.05;102635.19;6247642;23;20016;-61
2022/10/07 00:51:15;;;;;;;16.45;4.13;;;;;;;11.57;70.62;102639.47;6247873;23;20008;-61
2022/10/07 00:53:41;;;;;;;13.80;4.18;;;;;;;11.54;70.70;102637.59;6247555;23;20079;-61
2022/10/07 00:56:08;;;;;;;13.27;4.25;;;;;;;11.56;70.96;102632.34;6247806;23;20008;-61
2022/10/07 00:58:36;;;;;;;12.70;3.92;;;;;;;11.56;71.38;102628.78;6247769;23;20015;-61
2022/10/07 01:01:01;;;;;;;15.98;4.45;;;;;;;11.50;71.24;102633.03;6247485;23;20007;-61
2022/10/07 01:03:28;;;;;;;10.88;4.20;;;;;;;11.40;71.72;102622.06;6247741;23;20008;-60
2022/10/07 01:05:53;;;;;;;13.02;3.90;;;;;;;11.35;71.41;102613.97;6247100;23;20381;-61
2022/10/07 01:08:21;;;;;;;14.50;4.35;;;;;;;11.23;72.51;102624.09;6247749;23;20013;-61
2022/10/07 01:10:50;;;;;;;14.50;3.90;;;;;;;11.20;72.37;102616.03;6247413;23;20004;-61
2022/10/07 01:13:33;;;;;;;13.40;4.13;;;;;;;11.25;72.64;102612.72;6247383;23;20008;-61
2022/10/07 01:16:33;;;;;;;14.18;4.20;;;;;;;11.37;72.24;102609.63;6247233;23;20004;-61
2022/10/07 01:19:22;;;;;;;12.70;3.90;;;;;;;11.34;72.93;102611.25;6247324;23;20068;-61
2022/10/07 01:22:14;;;;;;;16.95;4.22;;;;;;;11.16;73.11;102608.84;6247330;23;20054;-61
2022/10/07 01:24:53;;;;;;;15.35;4.13;;;;;;;11.12;73.81;102593.69;6247290;23;20426;-61
2022/10/07 01:27:23;;;;;;;14.98;4.38;;;;;;;11.10;73.76;102598.94;6247241;23;20015;-61
2022/10/07 01:29:57;;;;;;;17.23;4.13;;;;;;;11.14;73.39;102595.56;6247164;23;20106;-61
2022/10/07 01:32:35;;;;;;;11.13;3.92;;;;;;;11.11;73.43;102599.84;6247314;23;20012;-61
2022/10/07 01:35:04;;;;;;;18.55;4.35;;;;;;;11.09;74.05;102585.63;6247269;23;20085;-61
2022/10/07 01:37:34;;;;;;;17.13;4.50;;;;;;;11.08;73.36;102584.75;6246831;23;20326;-61
2022/10/07 01:40:06;;;;;;;14.43;3.97;;;;;;;11.03;73.71;102578.38;6247212;23;20010;-61
2022/10/07 01:42:32;;;;;;;12.55;4.30;;;;;;;10.99;74.10;102572.06;6247185;23;20004;-61
2022/10/07 01:44:58;;;;;;;15.27;4.13;;;;;;;11.00;74.57;102573.88;6247001;23;20004;-62
2022/10/07 01:47:27;;;;;;;15.93;4.32;;;;;;;10.98;74.90;102567.63;6247239;23;20453;-61
2022/10/07 01:49:53;;;;;;;18.20;4.18;;;;;;;10.85;74.88;102560.09;6247000;23;20039;-61
2022/10/07 01:52:42;;;;;;;18.42;4.90;;;;;;;10.81;74.93;102558.19;6246989;23;20011;-61
2022/10/07 01:55:41;;;;;;;13.70;3.70;;;;;;;10.80;75.23;102552.84;6220217;23;20019;-61
2022/10/07 01:58:37;;;;;;;14.57;4.13;;;;;;;10.76;75.44;102549.19;6246996;23;20476;-61
2022/10/07 02:01:16;;;;;;;18.83;4.22;;;;;;;10.70;75.29;102543.66;6247097;23;20007;-61
2022/10/07 02:04:05;;;;;;;11.25;3.95;;;;;;;10.68;75.26;102542.72;6247277;23;20338;-61
2022/10/07 02:06:58;;;;;;;15.75;4.45;;;;;;;10.67;75.41;102535.63;6246945;23;20004;-62
2022/10/07 02:09:33;;;;;;;11.32;3.95;;;;;;;10.60;75.74;102534.50;6246939;23;20058;-60
2022/10/07 02:12:13;;;;;;;11.85;3.88;;;;;;;10.62;75.69;102531.88;6246885;23;20001;-61
2022/10/07 02:14:48;;;;;;;15.05;3.83;;;;;;;10.61;75.42;102523.06;6247190;23;20054;-60
2022/10/07 02:17:19;;;;;;;13.27;3.58;;;;;;;10.63;75.55;102524.03;6246566;23;20015;-60
2022/10/07 02:19:52;;;;;;;12.45;4.20;;;;;;;10.73;75.38;102523.53;6246563;23;20015;-60
2022/10/07 02:22:20;;;;;;;10.68;3.70;;;;;;;10.89;74.60;102522.34;6247026;23;20004;-60
2022/10/07 02:24:48;;;;;;;15.52;4.18;;;;;;;10.89;74.28;102527.63;6246434;23;20004;-60
2022/10/07 02:27:21;;;;;;;14.48;4.80;;;;;;;10.88;74.16;102522.31;6246536;23;20012;-61
2022/10/07 02:29:50;;;;;;;14.27;4.15;;;;;;;10.83;74.33;102519.47;6246716;23;20330;-60
2022/10/07 02:32:19;;;;;;;13.55;4.00;;;;;;;10.81;74.54;102520.28;6246907;23;20007;-60
2022/10/07 02:34:50;;;;;;;15.38;4.20;;;;;;;10.80;74.64;102510.53;6246620;23;20027;-60
2022/10/07 02:37:25;;;;;;;12.77;4.22;;;;;;;10.83;74.46;102503.59;6246606;23;20008;-60
2022/10/07 02:39:53;;;;;;;18.30;4.22;;;;;;;10.78;74.66;102499.88;6246925;23;20082;-60
2022/10/07 02:42:38;;;;;;;16.02;4.10;;;;;;;10.84;74.06;102500.13;6246781;23;20330;-60
2022/10/07 02:45:15;;;;;;;11.50;3.85;;;;;;;10.77;74.05;102499.00;6246284;23;20422;-60
2022/10/07 02:47:50;;;;;;;13.35;3.88;;;;;;;10.74;73.78;102498.88;6246799;23;20004;-61
2022/10/07 02:50:24;;;;;;;10.20;3.67;;;;;;;10.76;74.98;102491.91;6246217;23;20004;-61
2022/10/07 02:52:54;;;;;;;9.68;3.88;;;;;;;10.76;74.01;102489.28;6246476;23;20012;-61
2022/10/07 02:55:24;;;;;;;13.35;4.15;;;;;;;10.69;73.28;102486.34;6246757;23;20004;-60
2022/10/07 02:57:56;;;;;;;11.95;3.80;;;;;;;10.67;72.64;102486.28;6246467;23;20019;-60
2022/10/07 03:00:22;;;;;;;10.27;3.55;;;;;;;10.77;74.25;102492.81;6246410;23;20075;-60
2022/10/07 03:03:01;;;;;;;10.23;3.83;;;;;;;10.71;72.71;102485.56;6246333;23;20047;-60
2022/10/07 03:05:27;;;;;;;16.35;3.70;;;;;;;10.79;73.27;102477.88;6246378;23;20023;-60
2022/10/07 03:07:56;;;;;;;11.48;3.47;;;;;;;10.71;72.69;102480.28;6246273;23;20008;-61
2022/10/07 03:10:22;;;;;;;12.50;4.20;;;;;;;10.68;72.76;102473.97;6246508;23;20075;-60
2022/10/07 03:12:47;;;;;;;9.73;3.90;;;;;;;10.57;73.38;102473.56;6246261;23;20047;-60
2022/10/07 03:15:13;;;;;;;16.98;4.00;;;;;;;10.56;74.36;102469.13;6246507;23;20393;-61
2022/10/07 03:17:39;;;;;;;12.63;3.90;;;;;;;10.57;74.19;102468.28;6245880;23;20016;-60
2022/10/07 03:20:07;;;;;;;13.15;3.55;;;;;;;10.56;74.77;102465.59;6246079;23;20005;-60
2022/10/07 03:22:32;;;;;;;11.57;3.85;;;;;;;10.50;74.51;102464.53;6246107;23;20004;-61
2022/10/07 03:24:57;;;;;;;14.30;3.92;;;;;;;10.47;74.49;102455.56;6246185;23;20014;-61
2022/10/07 03:27:23;;;;;;;13.13;3.85;;;;;;;10.45;74.58;102444.97;6246122;23;20000;-60
2022/10/07 03:29:49;;;;;;;11.35;3.80;;;;;;;10.41;75.20;102453.63;6246086;23;20011;-61
2022/10/07 03:32:14;;;;;;;10.88;4.13;;;;;;;10.39;75.26;102450.00;6246453;23;20012;-60
2022/10/07 03:34:40;;;;;;;12.63;3.53;;;;;;;10.48;75.23;102446.81;6246172;23;20445;-61
2022/10/07 03:37:05;;;;;;;10.60;3.70;;;;;;;10.44;73.67;102444.88;6246103;23;20004;-60
2022/10/07 03:39:30;;;;;;;10.82;3.65;;;;;;;10.41;74.34;102443.06;6219575;23;20457;-60
2022/10/07 03:41:56;;;;;;;14.98;3.80;;;;;;;10.42;74.65;102452.78;6246066;23;20046;-60
2022/10/07 03:44:22;;;;;;;11.75;3.70;;;;;;;10.41;74.84;102448.34;6246263;23;20012;-61
2022/10/07 03:46:48;;;;;;;12.95;3.78;;;;;;;10.42;74.67;102444.84;6246394;23;20008;-61
2022/10/07 03:49:14;;;;;;;13.70;4.03;;;;;;;10.46;74.69;102446.75;6219335;23;20422;-60
2022/10/07 03:51:39;;;;;;;11.00;3.33;;;;;;;10.47;73.29;102447.66;6245938;23;20391;-60
2022/10/07 03:54:06;;;;;;;10.15;3.55;;;;;;;10.47;73.47;102442.38;6246030;23;20035;-61
2022/10/07 03:56:31;;;;;;;16.20;3.65;;;;;;;10.39;73.64;102434.16;6245960;23;20008;-60
2022/10/07 03:58:56;;;;;;;12.15;4.07;;;;;;;10.33;74.54;102433.03;6245974;23;20005;-60
2022/10/07 04:01:22;;;;;;;10.13;3.20;;;;;;;10.37;75.24;102438.50;6247338;23;20082;-60
2022/10/07 04:03:47;;;;;;;12.25;4.20;;;;;;;10.33;75.03;102435.69;6248028;23;20436;-60
2022/10/07 04:06:13;;;;;;;16.80;4.30;;;;;;;10.32;74.88;102431.22;6220871;23;20434;-61
2022/10/07 04:08:39;;;;;;;14.15;3.65;;;;;;;10.35;73.41;102431.34;6248030;23;20004;-61
2022/10/07 04:11:05;;;;;;;11.50;4.03;;;;;;;10.30;73.17;102435.56;6248293;23;20008;-61
2022/10/07 04:13:32;;;;;;;10.60;3.45;;;;;;;10.25;73.11;102436.28;6248152;23;20461;-61
2022/10/07 04:16:03;;;;;;;11.00;3.67;;;;;;;10.32;73.34;102433.84;6248057;23;20008;-61
2022/10/07 04:18:29;;;;;;;17.38;4.10;;;;;;;10.32;73.31;102432.16;6248084;23;20016;-60
2022/10/07 04:20:58;;;;;;;10.43;3.90;;;;;;;10.24;73.51;102430.91;6247618;23;20015;-61
2022/10/07 04:23:23;;;;;;;10.57;3.78;;;;;;;10.20;72.96;102429.00;6248175;23;20015;-61
2022/10/07 04:25:48;;;;;;;10.98;3.85;;;;;;;10.09;73.89;102427.69;6247675;23;20430;-60
2022/10/07 04:28:17;;;;;;;11.98;3.47;;;;;;;9.95;74.43;102422.78;6247985;23;20418;-60
2022/10/07 04:30:43;;;;;;;11.52;3.85;;;;;;;9.89;75.25;102421.63;6247665;23;20086;-60
2022/10/07 04:33:11;;;;;;;11.00;3.55;;;;;;;9.85;75.58;102418.00;6247948;23;20008;-60
2022/10/07 04:35:38;;;;;;;13.77;3.88;;;;;;;9.81;76.22;102424.00;6247652;23;20303;-60
2022/10/07 04:38:06;;;;;;;15.38;4.10;;;;;;;9.76;76.35;102426.47;6247984;23;20004;-60
2022/10/07 04:40:32;;;;;;;9.52;3.60;;;;;;;9.76;76.21;102433.44;6247634;23;20019;-60
2022/10/07 04:45:42;;;;;;;11.13;3.58;;;;;;;9.83;75.08;102426.69;6247587;23;20066;-60
2022/10/07 04:48:07;;;;;;;12.07;3.80;;;;;;;9.76;74.65;102422.88;6247583;23;20004;-60
2022/10/07 04:50:37;;;;;;;11.48;3.53;;;;;;;9.74;75.63;102419.31;6247901;23;20008;-60
2022/10/07 04:53:07;;;;;;;11.48;4.00;;;;;;;9.77;75.88;102422.06;6247513;23;20012;-60
2022/10/07 04:55:36;;;;;;;11.75;4.00;;;;;;;9.72;76.37;102416.63;6247658;23;20337;-61
2022/10/07 04:58:02;;;;;;;12.95;3.80;;;;;;;9.83;76.47;102413.47;6247826;23;20004;-60
2022/10/07 05:00:27;;;;;;;16.42;4.28;;;;;;;9.89;75.95;102416.34;6247416;23;20011;-60
2022/10/07 05:02:53;;;;;;;13.85;4.07;;;;;;;9.96;75.54;102410.47;6247772;23;20325;-60
2022/10/07 05:05:18;;;;;;;11.07;3.78;;;;;;;9.93;74.07;102402.41;6247173;23;20096;-61
2022/10/07 05:07:49;;;;;;;13.75;3.75;;;;;;;9.97;73.61;102406.97;6247325;23;20035;-60
2022/10/07 05:10:15;;;;;;;9.32;3.63;;;;;;;9.96;72.74;102406.09;6247736;23;20078;-61
2022/10/07 05:12:41;;;;;;;10.55;3.35;;;;;;;9.92;72.59;102401.53;6247349;23;20418;-60
2022/10/07 05:15:07;;;;;;;7.57;3.38;;;;;;;9.83;73.09;102405.56;6247811;23;20035;-60
2022/10/07 05:17:32;;;;;;;15.10;3.70;;;;;;;9.81;74.29;102405.50;6247208;23;20453;-60
2022/10/07 05:19:57;;;;;;;12.40;3.60;;;;;;;9.76;74.51;102399.13;6247270;23;20438;-60
2022/10/07 05:22:23;;;;;;;10.32;3.80;;;;;;;9.76;73.91;102407.97;6247344;23;20008;-61
2022/10/07 05:24:48;;;;;;;8.82;3.70;;;;;;;9.69;73.81;102394.47;6247122;23;20016;-61
2022/10/07 05:27:14;;;;;;;7.53;3.35;;;;;;;9.61;73.72;102396.81;6247513;23;20004;-61
2022/10/07 05:29:39;;;;;;;11.70;4.28;;;;;;;9.53;75.25;102399.13;6247285;23;20497;-61
2022/10/07 05:32:05;;;;;;;13.05;3.97;;;;;;;9.51;75.02;102390.28;6247238;23;20058;-61
2022/10/07 05:34:30;;;;;;;11.43;3.60;;;;;;;9.42;75.85;102389.91;6247192;23;20352;-61
2022/10/07 05:36:56;;;;;;;12.27;3.40;;;;;;;9.43;76.70;102380.25;6247091;23;20036;-61
2022/10/07 05:39:21;;;;;;;13.40;3.85;;;;;;;9.39;76.40;102387.13;6247122;23;20015;-61
2022/10/07 05:41:47;;;;;;;10.88;3.67;;;;;;;9.46;77.02;102386.56;6247150;23;20008;-61
2022/10/07 05:44:12;;;;;;;12.32;3.53;;;;;;;9.32;77.16;102384.19;6246896;23;20062;-60
2022/10/07 05:46:39;;;;;;;10.20;3.45;;;;;;;9.31;77.96;102378.00;6247279;23;20058;-60
2022/10/07 05:49:05;;;;;;;13.57;3.63;;;;;;;9.42;78.08;102383.69;6247313;23;20012;-60
2022/10/07 05:51:30;;;;;;;11.70;3.40;;;;;;;9.42;77.72;102382.00;6247022;23;20075;-60
2022/10/07 05:53:56;;;;;;;11.23;3.65;;;;;;;9.43;77.63;102386.41;6220259;23;20031;-60
2022/10/07 05:56:22;;;;;;;10.40;3.55;;;;;;;9.45;76.81;102386.47;6246975;23;20011;-60
2022/10/07 05:58:48;;;;;;;10.40;3.50;;;;;;;9.57;76.99;102372.88;6246915;23;20011;-60
2022/10/07 06:01:17;;;;;;;10.27;3.17;;;;;;;9.72;76.99;102378.72;6246803;23;20426;-60
2022/10/07 06:03:47;;;;;;;18.00;3.92;;;;;;;9.84;76.15;102367.75;6246835;23;20004;-61
2022/10/07 06:06:12;;;;;;;16.95;4.20;;;;;;;9.94;75.75;102364.63;6246477;23;20079;-61
2022/10/07 06:08:38;;;;;;;18.42;4.07;;;;;;;9.92;76.15;102366.31;6247149;23;20031;-61
2022/10/07 06:13:49;;;;;;;21.88;3.97;;;;;;;9.95;75.77;102371.72;6246914;23;20016;-60
2022/10/07 06:16:15;;;;;;;12.05;3.90;;;;;;;9.94;75.46;102360.25;6246556;23;21657;-61
2022/10/07 06:18:40;;;;;;;14.15;3.78;;;;;;;10.00;75.74;102362.22;6246834;23;20426;-60
2022/10/07 06:21:06;;;;;;;13.60;3.90;;;;;;;10.09;76.51;102364.28;6246732;23;20016;-61
2022/10/07 06:23:32;;;;;;;10.23;3.42;;;;;;;10.06;76.24;102361.53;6246676;23;20012;-60
2022/10/07 06:26:00;;;;;;;16.38;4.20;;;;;;;10.01;77.06;102364.00;6246587;23;20001;-61
2022/10/07 06:28:31;;;;;;;12.05;3.78;;;;;;;9.96;77.09;102361.19;6246901;23;20036;-61
2022/10/07 06:30:57;;;;;;;14.45;3.80;;;;;;;10.04;77.61;102364.13;6246683;23;20012;-61
2022/10/07 06:33:22;;;;;;;15.60;4.05;;;;;;;10.18;77.20;102367.28;6246634;23;20008;-61
2022/10/07 06:35:47;;;;;;;15.15;4.10;;;;;;;10.26;77.52;102361.47;6246286;23;20012;-61
2022/10/07 06:38:13;;;;;;;13.70;3.50;;;;;;;10.43;76.87;102363.81;6246616;23;20430;-61
2022/10/07 06:40:38;;;;;;;16.15;4.35;;;;;;;10.55;76.60;102361.63;6246553;23;20004;-61
2022/10/07 06:43:04;;;;;;;16.80;4.20;;;;;;;10.73;76.42;102356.94;6246793;23;20066;-61
2022/10/07 06:45:31;;;;;;;16.65;4.07;;;;;;;10.91;75.38;102355.78;6246231;23;20004;-61
2022/10/07 06:47:56;;;;;;;14.30;3.33;;;;;;;10.97;75.05;102348.06;6246374;23;20004;-61
2022/10/07 06:50:22;;;;;;;14.23;4.05;;;;;;;10.97;75.41;102359.53;6220079;23;20130;-61
2022/10/07 06:52:48;;;;;;;18.95;4.38;;;;;;;11.05;75.33;102359.81;6246395;23;20095;-61
2022/10/07 06:55:13;;;;;;;16.15;4.07;;;;;;;11.20;75.01;102357.63;6246609;23;20008;-62
2022/10/07 06:57:40;;;;;;;17.77;4.60;;;;;;;11.36;74.91;102359.03;6246695;23;20330;-61
2022/10/07 07:00:06;;;;;;;13.77;3.60;;;;;;;11.43;74.37;102361.00;6246211;23;20049;-61
2022/10/07 07:02:32;;;;;;;15.40;3.60;;;;;;;11.39;74.20;102363.50;6246057;23;20106;-62
2022/10/07 07:04:57;;;;;;;13.65;3.65;;;;;;;11.39;74.79;102366.16;6245874;23;20423;-61
2022/10/07 07:07:23;;;;;;;15.48;4.10;;;;;;;11.39;74.84;102360.88;6246236;23;20342;-61
2022/10/07 07:09:49;;;;;;;15.63;3.80;;;;;;;11.43;74.49;102366.31;6219528;23;20330;-61
2022/10/07 07:12:15;;;;;;;12.02;3.38;;;;;;;11.54;74.62;102366.66;6246203;23;20008;-62
2022/10/07 07:14:42;;;;;;;12.25;3.22;;;;;;;11.70;74.08;102368.94;6219438;23;20385;-61
2022/10/07 07:17:07;;;;;;;10.32;3.28;;;;;;;11.86;73.77;102367.69;6246099;23;20016;-61
2022/10/07 07:19:33;;;;;;;12.60;3.38;;;;;;;12.10;72.76;102361.28;6246199;23;20011;-61
2022/10/07 07:21:58;;;;;;;15.25;3.47;;;;;;;12.28;72.17;102372.41;6246478;23;20322;-61
2022/10/07 07:24:23;;;;;;;11.63;3.20;;;;;;;12.36;71.99;102365.56;6246369;23;20018;-60
2022/10/07 07:26:49;;;;;;;11.05;3.42;;;;;;;12.28;71.85;102368.00;6246189;23;20441;-61
2022/10/07 07:29:15;;;;;;;14.50;3.50;;;;;;;12.36;72.21;102365.56;6246064;23;20008;-62
2022/10/07 07:31:41;;;;;;;12.73;3.53;;;;;;;12.60;71.94;102362.72;6246223;23;20004;-60
2022/10/07 07:34:12;;;;;;;17.40;3.50;;;;;;;12.85;71.81;102365.97;6246041;23;20000;-60
2022/10/07 07:36:43;;;;;;;18.00;4.10;;;;;;;13.15;70.35;102366.78;6245719;23;20429;-61
2022/10/07 07:39:11;;;;;;;13.35;3.75;;;;;;;13.28;68.85;102362.69;6246312;23;20011;-60
2022/10/07 07:41:40;;;;;;;12.07;3.42;;;;;;;13.50;68.82;102369.41;6245879;23;20031;-60
2022/10/07 07:44:10;;;;;;;15.32;3.60;;;;;;;13.67;68.63;102357.41;6219162;23;20004;-59
2022/10/07 07:46:38;;;;;;;12.40;3.40;;;;;;;13.82;66.94;102366.56;6219975;23;20000;-60
2022/10/07 07:49:05;;;;;;;13.00;3.47;;;;;;;13.88;67.01;102359.63;6246284;23;20000;-60
2022/10/07 07:51:31;;;;;;;17.15;4.07;;;;;;;13.90;66.44;102354.34;6245841;23;20028;-59
2022/10/07 07:53:56;;;;;;;14.38;3.67;;;;;;;14.06;66.43;102359.13;6246229;23;20008;-60
2022/10/07 07:56:22;;;;;;;14.65;3.63;;;;;;;14.04;66.66;102351.09;6246249;23;20449;-59
2022/10/07 07:58:47;;;;;;;13.90;3.80;;;;;;;14.01;66.59;102358.13;6246031;23;20397;-60
2022/10/07 08:01:15;;;;;;;19.80;3.42;;;;;;;14.00;66.94;102365.22;6246075;23;20016;-60
2022/10/07 08:03:42;;;;;;;15.32;3.83;;;;;;;14.14;67.16;102359.28;6246036;23;20333;-60
2022/10/07 08:06:10;;;;;;;9.95;3.53;;;;;;;14.26;66.58;102352.44;6245592;23;20485;-60
2022/10/07 08:08:36;;;;;;;10.02;3.33;;;;;;;14.44;65.56;102354.56;6245907;23;20431;-60
2022/10/07 08:11:11;;;;;;;17.98;3.88;;;;;;;14.67;64.55;102348.78;6246192;23;20008;-60
2022/10/07 08:13:40;;;;;;;14.75;3.67;;;;;;;14.70;64.52;102347.09;6245922;23;20000;-60
2022/10/07 08:16:11;;;;;;;14.55;3.53;;;;;;;14.90;63.61;102339.47;6245816;23;20016;-60
2022/10/07 08:18:40;;;;;;;18.42;3.80;;;;;;;15.12;62.75;102339.81;6246253;23;20000;-60
2022/10/07 08:21:07;;;;;;;12.00;3.55;;;;;;;15.36;63.26;102349.94;6245853;23;20330;-60
2022/10/07 08:23:34;;;;;;;10.95;3.45;;;;;;;15.62;61.62;102348.53;6246144;23;20012;-60
2022/10/07 08:26:00;;;;;;;17.95;3.13;;;;;;;15.86;60.21;102337.34;6246037;23;20011;-60
2022/10/07 08:28:27;;;;;;;12.63;3.60;;;;;;;16.14;59.75;102335.91;6246017;23;20009;-62
2022/10/07 08:30:53;;;;;;;14.93;3.75;;;;;;;16.23;59.88;102338.72;6245758;23;20008;-61
2022/10/07 08:33:20;;;;;;;13.20;3.60;;;;;;;16.19;59.88;102336.88;6245907;23;20455;-61
2022/10/07 08:35:50;;;;;;;12.52;3.70;;;;;;;16.21;59.67;102332.44;6245410;23;20015;-60
2022/10/07 08:38:15;;;;;;;15.30;3.67;;;;;;;16.25;57.75;102328.94;6245822;23;20004;-60
2022/10/07 08:40:52;;;;;;;13.60;3.80;;;;;;;16.42;58.48;102321.09;6246112;23;20062;-60
2022/10/07 08:43:20;;;;;;;12.07;3.28;;;;;;;16.60;58.07;102322.16;6245816;23;20030;-61
2022/10/07 08:45:47;;;;;;;15.95;3.33;;;;;;;16.82;57.10;102334.84;6245775;23;20000;-62
2022/10/07 08:48:20;;;;;;;14.90;3.42;;;;;;;16.93;57.14;102324.28;6247309;23;20012;-61
2022/10/07 08:51:03;;;;;;;12.57;3.22;;;;;;;17.05;57.90;102316.38;6247646;23;20414;-62
2022/10/07 08:53:32;;;;;;;15.18;3.55;;;;;;;16.97;56.68;102315.41;6247640;23;20004;-61
2022/10/07 08:56:16;;;;;;;19.23;3.95;;;;;;;17.43;56.57;102311.28;6247538;23;20008;-61
2022/10/07 08:59:05;;;;;;;14.40;3.40;;;;;;;17.87;55.59;102309.75;6247650;23;20058;-61
2022/10/07 09:01:53;;;;;;;12.88;3.50;;;;;;;17.92;54.22;102302.63;6247609;23;20036;-61
2022/10/07 09:04:32;;;;;;;15.82;3.08;;;;;;;17.90;53.71;102299.03;6247509;23;20095;-61
2022/10/07 09:07:03;;;;;;;15.05;3.20;;;;;;;17.90;53.93;102291.94;6247607;23;20057;-61
2022/10/07 09:09:37;;;;;;;13.95;3.60;;;;;;;17.89;53.71;102292.81;6247416;23;20027;-61
2022/10/07 09:12:06;;;;;;;11.63;3.33;;;;;;;17.93;53.43;102299.97;6247804;23;20008;-61
2022/10/07 09:14:40;;;;;;;10.57;3.15;;;;;;;17.94;54.14;102295.50;6247466;23;20031;-61
2022/10/07 09:17:16;;;;;;;13.98;3.58;;;;;;;18.15;54.53;102300.91;6247162;23;20338;-61
2022/10/07 09:19:48;;;;;;;11.90;3.22;;;;;;;18.71;52.68;102294.81;6247771;23;20381;-61
2022/10/07 09:22:21;;;;;;;10.77;3.08;;;;;;;19.10;51.50;102289.41;6247409;23;20004;-61
2022/10/07 09:24:51;;;;;;;13.30;3.33;;;;;;;19.24;50.65;102285.81;6247302;23;20000;-60
2022/10/07 09:27:19;;;;;;;12.40;2.97;;;;;;;19.32;50.78;102283.13;6220543;23;20008;-61
2022/10/07 09:29:45;;;;;;;14.20;3.40;;;;;;;19.44;51.47;102282.19;6247598;23;20005;-61
2022/10/07 09:32:17;;;;;;;10.35;3.17;;;;;;;19.70;50.02;102272.31;6247232;23;20009;-61
2022/10/07 09:34:43;;;;;;;;;;;;;;;20.13;50.15;102279.25;6247825;23;20008;-60
2022/10/07 09:37:15;;;;;;;15.50;3.35;;;;;;;20.02;49.06;102274.81;6247175;23;19915;-62
2022/10/07 09:39:42;;;;;;;12.00;2.93;;;;;;;19.76;48.93;102268.69;6247078;23;20004;-65
2022/10/07 09:42:15;;;;;;;11.52;3.20;;;;;;;19.52;49.44;102266.97;6246995;23;20004;-61
2022/10/07 09:44:40;;;;;;;14.38;3.10;;;;;;;19.60;49.55;102261.56;6247112;23;20008;-61
2022/10/07 09:47:22;;;;;;;18.00;3.22;;;;;;;19.79;49.50;102260.66;6247048;23;20410;-62
2022/10/07 09:49:58;;;;;;;18.48;3.30;;;;;;;19.87;49.46;102256.13;6247354;23;20004;-62
2022/10/07 09:52:31;;;;;;;10.32;3.45;;;;;;;19.72;49.63;102256.19;6247045;23;20445;-60
2022/10/07 09:55:25;;;;;;;12.38;3.00;;;;;;;19.74;50.05;102252.63;6247286;23;20008;-60
2022/10/07 09:58:24;;;;;;;14.98;3.40;;;;;;;20.20;48.86;102243.41;6247060;23;20027;-63
2022/10/07 10:00:51;;;;;;;14.38;3.25;;;;;;;20.33;48.20;102249.56;6218448;23;20008;-60
2022/10/07 10:03:18;;;;;;;13.57;3.58;;;;;;;20.66;46.21;102246.66;6246973;23;20027;-61
2022/10/07 10:05:56;;;;;;;12.75;2.90;;;;;;;21.02;46.93;102241.81;6246871;23;20012;-61
2022/10/07 10:08:32;;;;;;;13.73;3.20;;;;;;;20.89;46.15;102240.16;6247148;23;20011;-61
2022/10/07 10:11:08;;;;;;;12.98;3.08;;;;;;;20.73;45.69;102251.06;6247206;23;20007;-61
2022/10/07 10:13:37;;;;;;;13.90;3.40;;;;;;;20.55;45.49;102242.28;6246818;23;20070;-61
2022/10/07 10:16:05;;;;;;;9.65;3.00;;;;;;;20.55;44.50;102229.72;6246415;23;20008;-61
2022/10/07 10:18:32;;;;;;;14.27;3.15;;;;;;;20.66;45.29;102235.91;6246744;23;20061;-61
2022/10/07 10:21:25;;;;;;;14.35;3.38;;;;;;;21.12;45.16;102224.72;6246831;23;20011;-61
2022/10/07 10:23:54;;;;;;;12.00;3.17;;;;;;;21.18;44.79;102215.69;6231838;23;20008;-61
2022/10/07 10:26:25;;;;;;;11.50;2.85;;;;;;;21.39;44.23;102211.88;6219826;23;20004;-61
2022/10/07 10:29:19;;;;;;;12.15;3.33;;;;;;;21.46;44.05;102210.91;6246825;23;20004;-62
2022/10/07 10:32:00;;;;;;;12.32;3.20;;;;;;;21.01;44.87;102206.00;6246546;23;20444;-62
2022/10/07 10:34:41;;;;;;;13.68;3.10;;;;;;;21.11;44.44;102197.81;6246376;23;20012;-61
2022/10/07 10:37:20;;;;;;;12.23;3.10;;;;;;;21.13;45.04;102193.34;6246637;23;20476;-62
2022/10/07 10:40:13;;;;;;;11.18;3.10;;;;;;;20.88;44.04;102188.22;6246470;23;20004;-62
2022/10/07 10:43:05;;;;;;;14.05;3.85;;;;;;;20.85;44.61;102187.38;6246611;23;20000;-61
2022/10/07 10:45:48;;;;;;;12.48;3.40;;;;;;;20.70;44.26;102185.75;6246500;23;20004;-61
2022/10/07 10:48:41;;;;;;;16.00;3.30;;;;;;;20.54;44.53;102174.25;6246797;23;20019;-61
2022/10/07 10:51:30;;;;;;;;;;;;;;;20.64;45.97;102181.31;6247366;23;20039;-61
2022/10/07 10:54:02;;;;;;;11.10;3.10;;;;;;;20.73;45.42;102178.53;6246790;23;20241;-61
2022/10/07 10:56:39;;;;;;;12.02;2.90;;;;;;;20.74;43.63;102179.44;6246533;23;20005;-61
2022/10/07 10:59:08;;;;;;;10.80;3.22;;;;;;;21.08;43.82;102158.47;6219611;23;20011;-61
2022/10/07 11:01:36;;;;;;;9.52;2.63;;;;;;;21.25;42.27;102155.56;6246292;23;20012;-61
2022/10/07 11:04:23;;;;;;;14.40;3.75;;;;;;;21.27;43.43;102157.31;6246647;23;20000;-61
2022/10/07 11:07:03;;;;;;;11.07;2.90;;;;;;;21.19;43.52;102158.31;6246459;23;20015;-61
2022/10/07 11:09:38;;;;;;;11.20;2.85;;;;;;;21.30;42.69;102145.63;6246202;23;20004;-61
2022/10/07 11:12:10;;;;;;;10.10;2.72;;;;;;;21.16;42.90;102151.19;6246592;23;20012;-61
2022/10/07 11:14:47;;;;;;;11.85;2.85;;;;;;;21.12;43.27;102138.69;6246337;23;20008;-61
2022/10/07 11:17:14;;;;;;;14.02;3.20;;;;;;;20.66;43.05;102141.91;6219963;23;20354;-61
2022/10/07 11:20:03;;;;;;;17.73;3.30;;;;;;;20.58;44.06;102159.00;6246523;23;20334;-61
2022/10/07 11:22:38;;;;;;;11.00;2.70;;;;;;;20.60;44.83;102141.97;6246242;23;20326;-61
2022/10/07 11:25:29;;;;;;;12.60;3.30;;;;;;;20.70;43.38;102138.28;6246420;23;20004;-61
2022/10/07 11:28:00;;;;;;;11.88;2.83;;;;;;;20.93;42.96;102132.63;6245562;23;20015;-62
2022/10/07 11:30:34;;;;;;;11.70;2.75;;;;;;;21.18;42.70;102121.59;6246502;23;20010;-61
2022/10/07 11:33:19;;;;;;;9.80;2.63;;;;;;;21.72;41.97;102113.69;6219473;23;20004;-59
2022/10/07 11:35:56;;;;;;;16.35;3.20;;;;;;;21.90;41.57;102109.81;6245849;23;20011;-62
2022/10/07 11:38:28;;;;;;;10.02;2.83;;;;;;;21.77;41.52;102102.88;6246514;23;20015;-61
2022/10/07 11:40:55;;;;;;;9.77;2.90;;;;;;;21.49;41.18;102085.31;6246275;23;20058;-60